AirNav   ProFlight Series 2 Aviation Headset
 
 458 users online  

PA23 Kingsdale Air Park
Littlestown, Pennsylvania, USA

GOING TO LITTLESTOWN?


FAA INFORMATION EFFECTIVE 18 JUNE 2020

Location

FAA Identifier: PA23
Lat/Long: 39-43-37.3570N 077-06-42.9390W
39-43.622617N 077-06.715650W
39.7270436,-77.1119275
(estimated)
Elevation: 595 ft. / 181.4 m (surveyed)
Variation: 10W (1985)
From city: 1 mile SW of LITTLESTOWN, PA
Time zone: UTC -4 (UTC -5 during Standard Time)
Zip code: 17340

Airport Operations

Airport use: Private use. Permission required prior to landing
Activation date: 10/1973
Control tower: no
ARTCC: WASHINGTON CENTER
FSS: WILLIAMSPORT FLIGHT SERVICE STATION
Attendance: UNATNDD
Wind indicator: yes
Segmented circle: no

Airport Communications

WX AWOS-3 at DMW (9 nm SE): 121.25 (410-876-1281)
WX ASOS at THV (16 nm NE): 119.275 (717-792-5529)

Nearby radio navigation aids

VOR radial/distance  VOR name  Freq  Var
EMIr344/15.2WESTMINSTER VORTAC117.9008W
FDKr041/(22.5)FREDERICK VOR109.0008W
HGRr094/(34.4)HAGERSTOWN VOR109.8007W
HARr193/34.6HARRISBURG VORTAC112.5010W
BALr339/39.4BALTIMORE VORTAC115.1011W
MRBr066/39.8MARTINSBURG VORTAC112.1007W

 
NDB name  Hdg/Dist  Freq  Var  ID
ELLICOTT341/30.637111WFND ..-. -. -..

Airport Services

Airframe service: NONE
Powerplant service: NONE

Runway Information

Runway 3/21

Dimensions: 2060 x 100 ft. / 628 x 30 m
Surface: turf
RUNWAY 3  RUNWAY 21
Traffic pattern: leftleft
Displaced threshold: no600 ft.
Obstructions: none36 ft. pline, marked, 106 ft. from runway

Airport Ownership and Management from official FAA records

Ownership: Privately-owned
Owner: KINGSDALE AIRPARK, LLC
205 CARLISLE ST
HANOVER, PA 17331
Phone 717-359-8166
Manager: JAMES A. SMITH
201 ULRICKTOWN ROAD
LITTLESTOWN, PA 17340
Phone 717-359-8166
JIM SMITH 201 ULRICKTOWN RD LITTLESTOWN, PA 17340 (717-359-8166).

Additional Remarks

FOR CD CTC POTOMAC APCH AT 866-429-5882.

Instrument Procedures

There are no published instrument procedures at PA23.

Some nearby airports with instrument procedures:

KDMW - Carroll County Regional Airport/Jack B Poage Field (9 nm SE)
W05 - Gettysburg Regional Airport (10 nm NW)
KTHV - York Airport (16 nm NE)
2W2 - Clearview Airpark (16 nm S)
KFDK - Frederick Municipal Airport (22 nm SW)
 
Loc | Ops | Rwys | IFR | FBO | Links
Com | Nav | Svcs | Stats | Notes
Area around PA23 (Kingsdale Air Park)
 
Road maps at: MapQuest Bing Google
 
Aerial photo
No photo
 
Sectional chart

 
Airport distance calculator
Flying to Kingsdale Air Park? Find the distance to fly.

From to PA23

Sunrise and sunset
Times for 13-Jul-2020
 Local
(UTC-4)
 Zulu
(UTC)
Morning civil twilight05:2109:21
Sunrise05:5309:53
Sunset20:3500:35
Evening civil twilight21:0701:07

Current date and time
Zulu (UTC)  13-Jul-2020 05:44:07
Local (UTC-4)  13-Jul-2020 01:44:07
 
METAR
KDMW 
9nm SE 
130535Z AUTO 00000KT 10SM CLR 21/20 A2983 RMK AO2
KTHV 
16nm NE 
130532Z AUTO 00000KT 3/4SM BR VV002 19/18 A2981 RMK AO2 T01940183
TAF
KMDT 
33nm NE 
130325Z 1303/1324 00000KT P6SM FEW007 BKN150 FM131200 31006KT P6SM BKN250
KBWI 
39nm SE 
122100Z 1221/1324 17006KT P6SM FEW060 BKN110 TEMPO 1221/1224 6SM SHRA BKN060 FM130100 21005KT P6SM BKN060 FM130600 VRB03KT P6SM BKN100 FM131900 29005KT P6SM FEW050 BKN060
KMTN 
41nm SE 
121723Z 1218/1318 19008KT P6SM SCT060 FM122100 18009KT P6SM VCTS BKN060CB FM130100 21005KT P6SM BKN060 FM130600 VRB03KT P6SM BKN090
NOTAMs
Click for the latest NOTAMs
NOTAMs are issued by the DoD/FAA and will open in a separate window not controlled by AirNav.

 

 
 

Would you like to see your business listed on this page?

 If your business provides an interesting product or service to pilots, flight crews, aircraft, or users of the Kingsdale Air Park, you should consider listing it here.  To start the listing process, click on the button below
 
Add a business
 

Other Pages about Kingsdale Air Park

Update a link
 
Copyright © AirNav, LLC. All rights reserved. Privacy Policy  Contact